sensor_id;sensor_type;location;lat;lon;timestamp;pressure;altitude;pressure_sealevel;temperature;humidity
42289;BME280;30230;47.520;19.016;2023-02-23T00:00:49;99072.28;;;7.41;72.92
42289;BME280;30230;47.520;19.016;2023-02-23T00:02:49;99086.13;;;7.60;72.43
42289;BME280;30230;47.520;19.016;2023-02-23T00:04:50;99078.69;;;7.40;72.44
42289;BME280;30230;47.520;19.016;2023-02-23T00:06:51;99094.03;;;7.46;72.84
42289;BME280;30230;47.520;19.016;2023-02-23T00:08:52;99100.16;;;7.55;72.89
42289;BME280;30230;47.520;19.016;2023-02-23T00:10:53;99093.91;;;7.54;72.44
42289;BME280;30230;47.520;19.016;2023-02-23T00:12:58;99097.84;;;7.52;72.21
42289;BME280;30230;47.520;19.016;2023-02-23T00:14:58;99103.00;;;7.53;71.70
42289;BME280;30230;47.520;19.016;2023-02-23T00:16:59;99097.38;;;7.48;72.62
42289;BME280;30230;47.520;19.016;2023-02-23T00:19:00;99093.66;;;7.49;72.86
42289;BME280;30230;47.520;19.016;2023-02-23T00:21:01;99093.41;;;7.44;72.02
42289;BME280;30230;47.520;19.016;2023-02-23T00:23:02;99100.44;;;7.45;72.09
42289;BME280;30230;47.520;19.016;2023-02-23T00:25:04;99090.78;;;7.66;71.43
42289;BME280;30230;47.520;19.016;2023-02-23T00:27:08;99095.34;;;7.50;71.79
42289;BME280;30230;47.520;19.016;2023-02-23T00:29:13;99087.56;;;7.41;72.75
42289;BME280;30230;47.520;19.016;2023-02-23T00:31:18;99097.09;;;7.43;73.04
42289;BME280;30230;47.520;19.016;2023-02-23T00:33:24;99090.47;;;7.39;72.76
42289;BME280;30230;47.520;19.016;2023-02-23T00:35:24;99087.03;;;7.30;73.70
42289;BME280;30230;47.520;19.016;2023-02-23T00:37:26;99100.00;;;7.27;73.65
42289;BME280;30230;47.520;19.016;2023-02-23T00:39:27;99100.38;;;7.24;72.92
42289;BME280;30230;47.520;19.016;2023-02-23T00:41:28;99101.00;;;7.26;73.17
42289;BME280;30230;47.520;19.016;2023-02-23T00:43:32;99098.97;;;7.28;72.65
42289;BME280;30230;47.520;19.016;2023-02-23T00:45:33;99094.72;;;7.19;73.45
42289;BME280;30230;47.520;19.016;2023-02-23T00:47:33;99106.66;;;7.16;73.47
42289;BME280;30230;47.520;19.016;2023-02-23T00:49:35;99097.22;;;7.35;73.25
42289;BME280;30230;47.520;19.016;2023-02-23T00:51:36;99103.41;;;7.50;71.24
42289;BME280;30230;47.520;19.016;2023-02-23T00:53:36;99102.41;;;7.37;72.36
42289;BME280;30230;47.520;19.016;2023-02-23T00:55:40;99084.88;;;7.41;72.22
42289;BME280;30230;47.520;19.016;2023-02-23T00:57:40;99098.97;;;7.28;72.70
42289;BME280;30230;47.520;19.016;2023-02-23T00:59:41;99102.75;;;7.34;72.98
42289;BME280;30230;47.520;19.016;2023-02-23T01:01:41;99108.81;;;7.21;73.41
42289;BME280;30230;47.520;19.016;2023-02-23T01:03:42;99114.72;;;7.16;73.75
42289;BME280;30230;47.520;19.016;2023-02-23T01:05:43;99107.88;;;7.14;73.80
42289;BME280;30230;47.520;19.016;2023-02-23T01:07:44;99114.09;;;7.14;73.47
42289;BME280;30230;47.520;19.016;2023-02-23T01:09:45;99110.84;;;7.19;73.77
42289;BME280;30230;47.520;19.016;2023-02-23T01:11:46;99113.63;;;7.11;74.08
42289;BME280;30230;47.520;19.016;2023-02-23T01:13:47;99112.88;;;7.17;73.18
42289;BME280;30230;47.520;19.016;2023-02-23T01:15:48;99103.63;;;7.04;73.25
42289;BME280;30230;47.520;19.016;2023-02-23T01:17:49;99109.53;;;7.15;73.39
42289;BME280;30230;47.520;19.016;2023-02-23T01:19:49;99105.47;;;7.19;73.40
42289;BME280;30230;47.520;19.016;2023-02-23T01:21:50;99116.59;;;7.16;73.66
42289;BME280;30230;47.520;19.016;2023-02-23T01:23:51;99112.78;;;7.10;74.30
42289;BME280;30230;47.520;19.016;2023-02-23T01:25:51;99109.81;;;7.05;73.24
42289;BME280;30230;47.520;19.016;2023-02-23T01:27:52;99113.69;;;7.02;73.11
42289;BME280;30230;47.520;19.016;2023-02-23T01:29:53;99112.03;;;7.01;73.71
42289;BME280;30230;47.520;19.016;2023-02-23T01:31:54;99113.06;;;7.30;72.78
42289;BME280;30230;47.520;19.016;2023-02-23T01:33:59;99115.19;;;7.20;72.44
42289;BME280;30230;47.520;19.016;2023-02-23T01:36:00;99097.22;;;7.05;73.24
42289;BME280;30230;47.520;19.016;2023-02-23T01:38:00;99112.41;;;7.13;72.96
42289;BME280;30230;47.520;19.016;2023-02-23T01:40:02;99099.63;;;7.00;73.63
42289;BME280;30230;47.520;19.016;2023-02-23T01:42:14;99108.72;;;6.99;73.89
42289;BME280;30230;47.520;19.016;2023-02-23T01:46:18;99105.00;;;7.00;75.14
42289;BME280;30230;47.520;19.016;2023-02-23T01:48:21;99096.75;;;7.17;71.96
42289;BME280;30230;47.520;19.016;2023-02-23T01:50:23;99101.22;;;7.10;73.06
42289;BME280;30230;47.520;19.016;2023-02-23T01:52:25;99091.28;;;6.95;73.81
42289;BME280;30230;47.520;19.016;2023-02-23T01:54:32;99084.34;;;6.86;74.39
42289;BME280;30230;47.520;19.016;2023-02-23T01:56:36;99096.66;;;6.95;73.09
42289;BME280;30230;47.520;19.016;2023-02-23T01:58:45;99105.34;;;6.97;73.29
42289;BME280;30230;47.520;19.016;2023-02-23T02:00:49;99089.72;;;6.86;73.74
42289;BME280;30230;47.520;19.016;2023-02-23T02:02:51;99100.56;;;6.93;73.15
42289;BME280;30230;47.520;19.016;2023-02-23T02:04:52;99088.31;;;6.90;72.65
42289;BME280;30230;47.520;19.016;2023-02-23T02:06:55;99101.75;;;6.90;73.56
42289;BME280;30230;47.520;19.016;2023-02-23T02:08:59;99100.72;;;6.91;73.18
42289;BME280;30230;47.520;19.016;2023-02-23T02:11:05;99100.56;;;6.93;73.06
42289;BME280;30230;47.520;19.016;2023-02-23T02:13:28;99101.75;;;6.90;73.26
42289;BME280;30230;47.520;19.016;2023-02-23T02:15:32;99093.41;;;6.85;73.25
42289;BME280;30230;47.520;19.016;2023-02-23T02:20:16;99094.72;;;6.89;72.91
42289;BME280;30230;47.520;19.016;2023-02-23T02:32:49;99092.41;;;6.86;72.79
42289;BME280;30230;47.520;19.016;2023-02-23T02:35:14;99098.44;;;6.88;72.78
42289;BME280;30230;47.520;19.016;2023-02-23T02:44:42;99091.03;;;7.20;70.54
42289;BME280;30230;47.520;19.016;2023-02-23T02:46:52;99097.50;;;7.11;70.55
42289;BME280;30230;47.520;19.016;2023-02-23T02:51:34;99098.44;;;6.88;72.80
42289;BME280;30230;47.520;19.016;2023-02-23T02:56:18;99111.69;;;7.19;69.98
42289;BME280;30230;47.520;19.016;2023-02-23T02:58:21;99095.94;;;7.16;69.66
42289;BME280;30230;47.520;19.016;2023-02-23T03:00:35;99099.06;;;7.05;71.05
42289;BME280;30230;47.520;19.016;2023-02-23T03:02:55;99095.75;;;6.88;72.30
42289;BME280;30230;47.520;19.016;2023-02-23T03:05:16;99098.50;;;6.80;72.76
42289;BME280;30230;47.520;19.016;2023-02-23T03:13:05;99113.31;;;6.76;73.54
42289;BME280;30230;47.520;19.016;2023-02-23T03:20:46;99099.13;;;6.82;73.11
42289;BME280;30230;47.520;19.016;2023-02-23T03:23:39;99108.34;;;6.88;72.14
42289;BME280;30230;47.520;19.016;2023-02-23T03:26:08;99111.94;;;6.80;72.99
42289;BME280;30230;47.520;19.016;2023-02-23T03:28:33;99111.94;;;6.80;73.14
42289;BME280;30230;47.520;19.016;2023-02-23T03:31:00;99116.94;;;6.83;72.67
42289;BME280;30230;47.520;19.016;2023-02-23T03:33:30;99108.22;;;6.81;73.25
42289;BME280;30230;47.520;19.016;2023-02-23T03:36:00;99108.97;;;6.90;72.34
42289;BME280;30230;47.520;19.016;2023-02-23T03:41:02;99114.81;;;6.78;71.54
42289;BME280;30230;47.520;19.016;2023-02-23T03:43:29;99123.88;;;6.77;72.23
42289;BME280;30230;47.520;19.016;2023-02-23T03:45:53;99118.13;;;6.81;72.81
42289;BME280;30230;47.520;19.016;2023-02-23T03:48:15;99120.63;;;6.82;72.92
42289;BME280;30230;47.520;19.016;2023-02-23T03:50:39;99112.13;;;6.78;73.08
42289;BME280;30230;47.520;19.016;2023-02-23T03:53:02;99109.97;;;6.74;72.93
42289;BME280;30230;47.520;19.016;2023-02-23T03:55:27;99114.25;;;6.83;72.20
42289;BME280;30230;47.520;19.016;2023-02-23T03:57:51;99108.59;;;6.78;72.33
42289;BME280;30230;47.520;19.016;2023-02-23T04:00:15;99117.66;;;6.77;73.39
42289;BME280;30230;47.520;19.016;2023-02-23T04:02:36;99111.91;;;6.65;74.59
42289;BME280;30230;47.520;19.016;2023-02-23T04:04:58;99110.88;;;6.66;74.21
42289;BME280;30230;47.520;19.016;2023-02-23T04:07:20;99120.44;;;6.69;73.03
42289;BME280;30230;47.520;19.016;2023-02-23T04:09:38;99114.41;;;6.67;74.07
42289;BME280;30230;47.520;19.016;2023-02-23T04:12:04;99111.75;;;6.67;73.71
42289;BME280;30230;47.520;19.016;2023-02-23T04:14:33;99095.41;;;6.53;73.77
42289;BME280;30230;47.520;19.016;2023-02-23T04:16:36;99112.72;;;6.66;74.81
42289;BME280;30230;47.520;19.016;2023-02-23T04:18:38;99104.69;;;6.66;73.56
42289;BME280;30230;47.520;19.016;2023-02-23T04:20:39;99116.53;;;6.71;73.07
42289;BME280;30230;47.520;19.016;2023-02-23T04:22:39;99114.22;;;6.68;73.68
42289;BME280;30230;47.520;19.016;2023-02-23T04:24:40;99109.59;;;6.77;73.19
42289;BME280;30230;47.520;19.016;2023-02-23T04:26:40;99115.25;;;6.82;72.25
42289;BME280;30230;47.520;19.016;2023-02-23T04:28:41;99111.63;;;6.75;73.39
42289;BME280;30230;47.520;19.016;2023-02-23T04:30:42;99103.75;;;6.59;74.91
42289;BME280;30230;47.520;19.016;2023-02-23T04:32:43;99107.06;;;6.61;74.56
42289;BME280;30230;47.520;19.016;2023-02-23T04:36:47;99109.47;;;6.56;74.95
42289;BME280;30230;47.520;19.016;2023-02-23T04:38:48;99108.81;;;6.53;74.72
42289;BME280;30230;47.520;19.016;2023-02-23T04:40:49;99121.16;;;6.63;74.21
42289;BME280;30230;47.520;19.016;2023-02-23T04:42:49;99126.72;;;6.76;73.53
42289;BME280;30230;47.520;19.016;2023-02-23T04:44:49;99117.66;;;6.77;73.52
42289;BME280;30230;47.520;19.016;2023-02-23T04:46:50;99120.13;;;6.64;74.19
42289;BME280;30230;47.520;19.016;2023-02-23T04:48:50;99114.13;;;6.62;74.62
42289;BME280;30230;47.520;19.016;2023-02-23T04:50:52;99127.94;;;6.73;74.55
42289;BME280;30230;47.520;19.016;2023-02-23T04:52:52;99123.00;;;6.77;72.91
42289;BME280;30230;47.520;19.016;2023-02-23T04:54:53;99129.59;;;6.74;72.75
42289;BME280;30230;47.520;19.016;2023-02-23T04:56:53;99124.13;;;6.68;72.52
42289;BME280;30230;47.520;19.016;2023-02-23T04:58:54;99116.25;;;6.66;72.50
42289;BME280;30230;47.520;19.016;2023-02-23T05:00:54;99115.41;;;6.66;72.53
42289;BME280;30230;47.520;19.016;2023-02-23T05:02:56;99122.47;;;6.67;72.60
42289;BME280;30230;47.520;19.016;2023-02-23T05:04:56;99102.34;;;6.48;71.79
42289;BME280;30230;47.520;19.016;2023-02-23T05:06:57;99114.84;;;6.56;72.34
42289;BME280;30230;47.520;19.016;2023-02-23T05:08:57;99123.13;;;6.69;72.63
42289;BME280;30230;47.520;19.016;2023-02-23T05:10:57;99114.19;;;6.53;73.92
42289;BME280;30230;47.520;19.016;2023-02-23T05:12:58;99115.22;;;6.52;73.42
42289;BME280;30230;47.520;19.016;2023-02-23T05:15:00;99121.13;;;6.48;72.25
42289;BME280;30230;47.520;19.016;2023-02-23T05:17:00;99124.97;;;6.45;72.96
42289;BME280;30230;47.520;19.016;2023-02-23T05:19:01;99126.00;;;6.44;74.16
42289;BME280;30230;47.520;19.016;2023-02-23T05:21:03;99113.16;;;6.55;72.97
42289;BME280;30230;47.520;19.016;2023-02-23T05:23:05;99130.28;;;6.53;72.78
42289;BME280;30230;47.520;19.016;2023-02-23T05:25:07;99130.00;;;6.48;72.69
42289;BME280;30230;47.520;19.016;2023-02-23T05:27:09;99119.63;;;6.45;72.41
42289;BME280;30230;47.520;19.016;2023-02-23T05:29:10;99125.13;;;6.52;72.12
42289;BME280;30230;47.520;19.016;2023-02-23T05:31:11;99127.13;;;6.50;71.03
42289;BME280;30230;47.520;19.016;2023-02-23T05:33:12;99123.69;;;6.41;72.02
42289;BME280;30230;47.520;19.016;2023-02-23T05:35:13;99129.34;;;6.46;71.84
42289;BME280;30230;47.520;19.016;2023-02-23T05:37:13;99133.22;;;6.44;72.43
42289;BME280;30230;47.520;19.016;2023-02-23T05:39:14;99137.28;;;6.40;73.28
42289;BME280;30230;47.520;19.016;2023-02-23T05:41:17;99134.44;;;6.41;71.94
42289;BME280;30230;47.520;19.016;2023-02-23T05:43:18;99127.75;;;6.37;72.59
42289;BME280;30230;47.520;19.016;2023-02-23T05:45:18;99135.63;;;6.39;72.35
42289;BME280;30230;47.520;19.016;2023-02-23T05:47:19;99134.53;;;6.48;72.09
42289;BME280;30230;47.520;19.016;2023-02-23T05:49:19;99098.38;;;6.21;71.98
42289;BME280;30230;47.520;19.016;2023-02-23T05:51:20;99138.81;;;6.57;71.89
42289;BME280;30230;47.520;19.016;2023-02-23T05:53:20;99132.03;;;6.46;72.22
42289;BME280;30230;47.520;19.016;2023-02-23T05:55:20;99132.94;;;6.39;72.87
42289;BME280;30230;47.520;19.016;2023-02-23T05:57:21;99134.59;;;6.40;72.14
42289;BME280;30230;47.520;19.016;2023-02-23T05:59:21;99143.00;;;6.37;72.14
42289;BME280;30230;47.520;19.016;2023-02-23T06:01:23;99142.63;;;6.40;71.60
42289;BME280;30230;47.520;19.016;2023-02-23T06:03:23;99147.06;;;6.33;72.21
42289;BME280;30230;47.520;19.016;2023-02-23T06:05:24;99146.34;;;6.39;71.54
42289;BME280;30230;47.520;19.016;2023-02-23T06:07:24;99152.50;;;6.47;71.45
42289;BME280;30230;47.520;19.016;2023-02-23T06:09:25;99152.25;;;6.34;72.30
42289;BME280;30230;47.520;19.016;2023-02-23T06:11:25;99154.88;;;6.42;71.33
42289;BME280;30230;47.520;19.016;2023-02-23T06:13:26;99148.38;;;6.37;71.36
42289;BME280;30230;47.520;19.016;2023-02-23T06:17:58;99130.88;;;6.26;70.77
42289;BME280;30230;47.520;19.016;2023-02-23T06:19:58;99136.69;;;6.30;71.00
42289;BME280;30230;47.520;19.016;2023-02-23T06:26:11;99128.81;;;6.28;70.66
42289;BME280;30230;47.520;19.016;2023-02-23T06:28:12;99128.41;;;6.16;69.87
42289;BME280;30230;47.520;19.016;2023-02-23T06:30:13;99094.84;;;5.97;70.00
42289;BME280;30230;47.520;19.016;2023-02-23T06:32:14;99175.91;;;6.53;70.34
42289;BME280;30230;47.520;19.016;2023-02-23T06:34:14;99175.56;;;6.57;69.65
42289;BME280;30230;47.520;19.016;2023-02-23T06:36:15;99175.56;;;6.57;70.29
42289;BME280;30230;47.520;19.016;2023-02-23T06:38:15;99173.56;;;6.50;70.28
42289;BME280;30230;47.520;19.016;2023-02-23T06:40:16;99187.28;;;6.56;70.96
42289;BME280;30230;47.520;19.016;2023-02-23T06:42:17;99187.13;;;6.57;71.57
42289;BME280;30230;47.520;19.016;2023-02-23T06:44:17;99192.25;;;6.67;71.28
42289;BME280;30230;47.520;19.016;2023-02-23T06:46:18;99182.56;;;6.81;69.99
42289;BME280;30230;47.520;19.016;2023-02-23T06:48:18;99181.22;;;6.99;79.41
42289;BME280;30230;47.520;19.016;2023-02-23T06:50:19;99192.28;;;7.34;82.17
42289;BME280;30230;47.520;19.016;2023-02-23T06:52:20;99188.72;;;7.34;72.57
42289;BME280;30230;47.520;19.016;2023-02-23T06:54:20;99195.69;;;7.43;67.88
42289;BME280;30230;47.520;19.016;2023-02-23T06:56:22;99172.78;;;7.17;67.38
42289;BME280;30230;47.520;19.016;2023-02-23T06:58:22;99184.53;;;7.01;69.09
42289;BME280;30230;47.520;19.016;2023-02-23T07:00:23;99195.00;;;6.96;69.07
42289;BME280;30230;47.520;19.016;2023-02-23T07:02:23;99195.91;;;6.89;69.52
42289;BME280;30230;47.520;19.016;2023-02-23T07:04:24;99200.25;;;6.90;69.68
42289;BME280;30230;47.520;19.016;2023-02-23T07:06:24;99203.50;;;6.85;69.48
42289;BME280;30230;47.520;19.016;2023-02-23T07:08:25;99199.50;;;6.81;69.96
42289;BME280;30230;47.520;19.016;2023-02-23T07:10:26;99196.22;;;6.94;69.85
42289;BME280;30230;47.520;19.016;2023-02-23T07:12:26;99194.59;;;6.85;69.46
42289;BME280;30230;47.520;19.016;2023-02-23T07:14:26;99204.56;;;6.99;69.56
42289;BME280;30230;47.520;19.016;2023-02-23T07:16:28;99206.94;;;6.94;68.11
42289;BME280;30230;47.520;19.016;2023-02-23T07:18:28;99205.44;;;6.91;69.09
42289;BME280;30230;47.520;19.016;2023-02-23T07:20:29;99200.47;;;6.88;67.99
42289;BME280;30230;47.520;19.016;2023-02-23T07:22:30;99205.00;;;7.02;67.83
42289;BME280;30230;47.520;19.016;2023-02-23T07:24:30;99203.53;;;7.00;68.52
42289;BME280;30230;47.520;19.016;2023-02-23T07:26:31;99200.81;;;6.85;68.75
42289;BME280;30230;47.520;19.016;2023-02-23T07:28:35;99199.34;;;6.83;68.61
42289;BME280;30230;47.520;19.016;2023-02-23T07:30:36;99201.03;;;6.98;68.48
42289;BME280;30230;47.520;19.016;2023-02-23T07:32:36;99214.28;;;7.00;67.63
42289;BME280;30230;47.520;19.016;2023-02-23T07:34:37;99214.16;;;6.93;68.11
42289;BME280;30230;47.520;19.016;2023-02-23T07:36:37;99213.34;;;6.93;68.21
42289;BME280;30230;47.520;19.016;2023-02-23T07:38:38;99212.13;;;6.95;68.04
42289;BME280;30230;47.520;19.016;2023-02-23T07:40:38;99203.59;;;6.92;67.77
42289;BME280;30230;47.520;19.016;2023-02-23T07:42:39;99206.41;;;6.98;67.57
42289;BME280;30230;47.520;19.016;2023-02-23T07:44:39;99200.38;;;6.96;67.15
42289;BME280;30230;47.520;19.016;2023-02-23T07:46:39;99210.31;;;7.11;67.30
42289;BME280;30230;47.520;19.016;2023-02-23T07:48:41;99214.00;;;7.10;66.56
42289;BME280;30230;47.520;19.016;2023-02-23T07:50:44;99208.84;;;7.38;64.81
42289;BME280;30230;47.520;19.016;2023-02-23T07:52:44;99211.16;;;7.26;65.83
42289;BME280;30230;47.520;19.016;2023-02-23T07:54:45;99194.53;;;7.08;65.90
42289;BME280;30230;47.520;19.016;2023-02-23T07:56:45;99209.66;;;7.09;67.02
42289;BME280;30230;47.520;19.016;2023-02-23T07:58:46;99211.34;;;7.24;66.43
42289;BME280;30230;47.520;19.016;2023-02-23T08:00:46;99211.22;;;7.18;65.68
42289;BME280;30230;47.520;19.016;2023-02-23T08:02:47;99201.72;;;7.15;66.17
42289;BME280;30230;47.520;19.016;2023-02-23T08:04:47;99207.84;;;7.24;66.34
42289;BME280;30230;47.520;19.016;2023-02-23T08:06:48;99215.31;;;7.28;65.26
42289;BME280;30230;47.520;19.016;2023-02-23T08:08:48;99212.91;;;7.34;65.61
42289;BME280;30230;47.520;19.016;2023-02-23T08:10:49;99213.59;;;7.36;65.28
42289;BME280;30230;47.520;19.016;2023-02-23T08:12:50;99206.06;;;7.31;66.45
42289;BME280;30230;47.520;19.016;2023-02-23T08:14:50;99209.81;;;7.45;65.54
42289;BME280;30230;47.520;19.016;2023-02-23T08:16:50;99213.88;;;7.41;64.43
42289;BME280;30230;47.520;19.016;2023-02-23T08:18:51;99219.06;;;7.57;63.06
42289;BME280;30230;47.520;19.016;2023-02-23T08:20:57;99220.25;;;7.54;64.97
42289;BME280;30230;47.520;19.016;2023-02-23T08:22:57;99222.41;;;7.44;64.48
42289;BME280;30230;47.520;19.016;2023-02-23T08:24:58;99227.13;;;7.57;64.21
42289;BME280;30230;47.520;19.016;2023-02-23T08:27:01;99219.06;;;7.57;64.09
42289;BME280;30230;47.520;19.016;2023-02-23T08:29:02;99220.53;;;7.60;64.14
42289;BME280;30230;47.520;19.016;2023-02-23T08:31:08;99226.56;;;7.62;64.16
42289;BME280;30230;47.520;19.016;2023-02-23T08:33:08;99228.16;;;7.71;63.63
42289;BME280;30230;47.520;19.016;2023-02-23T08:35:09;99227.00;;;7.80;63.47
42289;BME280;30230;47.520;19.016;2023-02-23T08:37:10;99225.34;;;7.79;62.15
42289;BME280;30230;47.520;19.016;2023-02-23T08:39:11;99231.28;;;7.74;62.95
42289;BME280;30230;47.520;19.016;2023-02-23T08:41:12;99227.94;;;7.72;63.62
42289;BME280;30230;47.520;19.016;2023-02-23T08:43:12;99227.47;;;7.69;63.51
42289;BME280;30230;47.520;19.016;2023-02-23T08:45:12;99229.53;;;7.67;63.29
42289;BME280;30230;47.520;19.016;2023-02-23T08:47:13;99229.81;;;7.72;63.54
42289;BME280;30230;47.520;19.016;2023-02-23T08:49:15;99232.38;;;7.80;63.43
42289;BME280;30230;47.520;19.016;2023-02-23T08:51:16;99229.97;;;7.85;63.17
42289;BME280;30230;47.520;19.016;2023-02-23T08:53:17;99232.03;;;7.83;63.56
42289;BME280;30230;47.520;19.016;2023-02-23T08:55:18;99239.63;;;7.79;63.11
42289;BME280;30230;47.520;19.016;2023-02-23T08:57:20;99231.47;;;7.73;63.95
42289;BME280;30230;47.520;19.016;2023-02-23T08:59:20;99237.13;;;7.78;63.79
42289;BME280;30230;47.520;19.016;2023-02-23T09:01:20;99234.34;;;7.71;63.20
42289;BME280;30230;47.520;19.016;2023-02-23T09:03:22;99230.00;;;7.70;62.91
42289;BME280;30230;47.520;19.016;2023-02-23T09:05:22;99235.91;;;7.95;71.40
42289;BME280;30230;47.520;19.016;2023-02-23T09:07:23;99239.41;;;8.10;64.46
42289;BME280;30230;47.520;19.016;2023-02-23T09:09:24;99232.78;;;8.43;77.06
42289;BME280;30230;47.520;19.016;2023-02-23T09:11:25;99229.25;;;8.85;72.92
42289;BME280;30230;47.520;19.016;2023-02-23T09:13:25;99224.88;;;9.05;66.43
42289;BME280;30230;47.520;19.016;2023-02-23T09:15:26;99230.06;;;9.07;60.40
42289;BME280;30230;47.520;19.016;2023-02-23T09:17:26;99227.44;;;8.92;60.00
42289;BME280;30230;47.520;19.016;2023-02-23T09:19:27;99230.22;;;8.77;60.50
42289;BME280;30230;47.520;19.016;2023-02-23T09:21:27;99236.38;;;8.71;59.09
42289;BME280;30230;47.520;19.016;2023-02-23T09:23:29;99228.09;;;8.73;60.05
42289;BME280;30230;47.520;19.016;2023-02-23T09:25:29;99232.97;;;8.63;59.81
42289;BME280;30230;47.520;19.016;2023-02-23T09:27:31;99224.31;;;8.67;59.52
42289;BME280;30230;47.520;19.016;2023-02-23T09:29:32;99233.16;;;8.82;60.99
42289;BME280;30230;47.520;19.016;2023-02-23T09:31:32;99232.66;;;8.72;59.38
42289;BME280;30230;47.520;19.016;2023-02-23T09:33:33;99242.38;;;8.73;58.46
42289;BME280;30230;47.520;19.016;2023-02-23T09:35:34;99235.16;;;8.74;59.56
42289;BME280;30230;47.520;19.016;2023-02-23T09:37:35;99230.16;;;8.71;59.67
42289;BME280;30230;47.520;19.016;2023-02-23T09:39:35;99247.16;;;8.71;58.97
42289;BME280;30230;47.520;19.016;2023-02-23T09:44:07;99247.72;;;8.88;56.46
42289;BME280;30230;47.520;19.016;2023-02-23T09:48:25;99234.72;;;8.70;58.56
42289;BME280;30230;47.520;19.016;2023-02-23T09:50:29;99240.16;;;8.77;58.79
42289;BME280;30230;47.520;19.016;2023-02-23T09:52:41;99243.16;;;8.88;58.82
42289;BME280;30230;47.520;19.016;2023-02-23T09:54:44;99239.84;;;8.86;58.84
42289;BME280;30230;47.520;19.016;2023-02-23T09:56:47;99238.94;;;8.79;58.48
42289;BME280;30230;47.520;19.016;2023-02-23T09:58:47;99241.91;;;8.84;58.52
42289;BME280;30230;47.520;19.016;2023-02-23T10:03:20;99232.25;;;8.97;57.15
42289;BME280;30230;47.520;19.016;2023-02-23T10:05:27;99236.63;;;8.98;56.26
42289;BME280;30230;47.520;19.016;2023-02-23T10:07:50;99241.16;;;8.97;55.57
42289;BME280;30230;47.520;19.016;2023-02-23T10:10:25;99245.78;;;8.82;55.06
42289;BME280;30230;47.520;19.016;2023-02-23T10:16:57;99242.63;;;9.21;55.40
42289;BME280;30230;47.520;19.016;2023-02-23T10:23:55;99233.97;;;9.26;56.13
42289;BME280;30230;47.520;19.016;2023-02-23T10:25:58;99235.63;;;9.27;56.76
42289;BME280;30230;47.520;19.016;2023-02-23T10:28:01;99230.19;;;9.20;56.45
42289;BME280;30230;47.520;19.016;2023-02-23T10:30:03;99222.72;;;9.22;53.92
42289;BME280;30230;47.520;19.016;2023-02-23T10:32:12;99227.78;;;9.32;54.65
42289;BME280;30230;47.520;19.016;2023-02-23T10:34:15;99235.91;;;9.38;55.90
42289;BME280;30230;47.520;19.016;2023-02-23T10:36:25;99229.47;;;9.39;53.83
42289;BME280;30230;47.520;19.016;2023-02-23T10:38:28;99227.44;;;9.42;54.33
42289;BME280;30230;47.520;19.016;2023-02-23T10:40:32;99229.53;;;9.46;55.22
42289;BME280;30230;47.520;19.016;2023-02-23T10:42:33;99226.16;;;9.37;55.73
42289;BME280;30230;47.520;19.016;2023-02-23T10:44:33;99225.75;;;9.40;56.72
42289;BME280;30230;47.520;19.016;2023-02-23T10:46:37;99220.19;;;9.42;55.45
42289;BME280;30230;47.520;19.016;2023-02-23T10:48:40;99221.88;;;9.50;56.16
42289;BME280;30230;47.520;19.016;2023-02-23T10:50:42;99212.34;;;9.54;54.12
42289;BME280;30230;47.520;19.016;2023-02-23T10:52:50;99209.91;;;9.59;54.05
42289;BME280;30230;47.520;19.016;2023-02-23T10:54:53;99206.00;;;9.61;54.71
42289;BME280;30230;47.520;19.016;2023-02-23T10:56:54;99202.25;;;9.62;54.90
42289;BME280;30230;47.520;19.016;2023-02-23T10:58:56;99200.97;;;9.58;54.11
42289;BME280;30230;47.520;19.016;2023-02-23T11:00:59;99203.09;;;9.63;54.34
42289;BME280;30230;47.520;19.016;2023-02-23T11:03:00;99200.38;;;9.56;54.47
42289;BME280;30230;47.520;19.016;2023-02-23T11:05:04;99197.56;;;9.43;52.88
42289;BME280;30230;47.520;19.016;2023-02-23T11:07:19;99201.31;;;9.42;53.78
42289;BME280;30230;47.520;19.016;2023-02-23T11:11:27;99197.66;;;9.56;55.28
42289;BME280;30230;47.520;19.016;2023-02-23T11:13:32;99190.56;;;9.49;55.77
42289;BME280;30230;47.520;19.016;2023-02-23T11:15:35;99196.16;;;9.47;54.42
42289;BME280;30230;47.520;19.016;2023-02-23T11:17:43;99186.22;;;9.54;54.21
42289;BME280;30230;47.520;19.016;2023-02-23T11:19:44;99192.44;;;9.55;53.85
42289;BME280;30230;47.520;19.016;2023-02-23T11:21:49;99192.50;;;9.61;53.04
42289;BME280;30230;47.520;19.016;2023-02-23T11:23:53;99187.72;;;9.63;54.72
42289;BME280;30230;47.520;19.016;2023-02-23T11:26:00;99186.44;;;9.53;55.56
42289;BME280;30230;47.520;19.016;2023-02-23T11:28:01;99192.69;;;9.60;54.00
42289;BME280;30230;47.520;19.016;2023-02-23T11:30:04;99170.00;;;9.41;53.79
42289;BME280;30230;47.520;19.016;2023-02-23T11:32:14;99184.19;;;9.56;55.06
42289;BME280;30230;47.520;19.016;2023-02-23T11:34:29;99181.66;;;9.55;55.37
42289;BME280;30230;47.520;19.016;2023-02-23T11:36:32;99185.59;;;9.52;53.98
42289;BME280;30230;47.520;19.016;2023-02-23T11:38:34;99181.50;;;9.56;54.75
42289;BME280;30230;47.520;19.016;2023-02-23T11:40:34;99175.88;;;9.58;55.48
42289;BME280;30230;47.520;19.016;2023-02-23T11:42:34;99167.13;;;9.49;54.30
42289;BME280;30230;47.520;19.016;2023-02-23T11:44:35;99175.44;;;9.54;54.61
42289;BME280;30230;47.520;19.016;2023-02-23T11:46:36;99172.13;;;9.52;56.30
42289;BME280;30230;47.520;19.016;2023-02-23T11:48:53;99175.69;;;9.59;55.88
42289;BME280;30230;47.520;19.016;2023-02-23T11:50:56;99160.31;;;9.53;54.34
42289;BME280;30230;47.520;19.016;2023-02-23T11:53:06;99171.75;;;9.62;55.13
42289;BME280;30230;47.520;19.016;2023-02-23T11:55:16;99157.41;;;9.55;55.03
42289;BME280;30230;47.520;19.016;2023-02-23T11:57:27;99164.66;;;9.54;56.37
42289;BME280;30230;47.520;19.016;2023-02-23T12:01:42;99159.06;;;9.56;56.28
42289;BME280;30230;47.520;19.016;2023-02-23T12:05:50;99162.84;;;9.61;54.78
42289;BME280;30230;47.520;19.016;2023-02-23T12:08:16;99159.91;;;9.56;54.49
42289;BME280;30230;47.520;19.016;2023-02-23T12:10:37;99146.56;;;9.42;56.27